CheckWX is a tool to help pilots better visualize weather data.  It is not intended as a substitute for an official pre-flight weather briefing.

19:21:17 UTC

EGDM METAR
MoD Boscombe Down Airport
Amesbury, United Kingdom
Current

31 mins ago

EGDM 261850Z AUTO 27013KT 9999 NCD 16/11 Q1012
Observed
May-26 @ 18:50 UTC
Wind
  • 270° at 13 KTS
Visibility
10,000+ meters
Flight Rules
VFR
Cloud Levels
  • Clear skies
Temperature
16°C / 61°F
Dewpoint
11°C / 52°F
Humidity
72%
Altimeter
29.88" Hg
Pressure
1011.92 hPa
Previous

2 hours ago

EGDM 261750Z AUTO 27014KT 9999 FEW039/// 17/12 Q1012
Observed
May-26 @ 17:50 UTC
Wind
  • 270° at 14 KTS
Visibility
10,000+ meters
Flight Rules
VFR
Cloud Levels
  • Few at 3,900' AGL
Temperature
17°C / 63°F
Dewpoint
12°C / 54°F
Humidity
73%
Altimeter
29.88" Hg
Pressure
1011.92 hPa
Previous

3 hours ago

EGDM 261650Z AUTO 26011KT 9999 FEW014/// BKN036/// 17/13 Q1012
Observed
May-26 @ 16:50 UTC
Wind
  • 260° at 11 KTS
Visibility
10,000+ meters
Flight Rules
VFR
Cloud Levels
  • Few at 1,400' AGL
  • Broken at 3,600' AGL
Temperature
17°C / 63°F
Dewpoint
13°C / 55°F
Humidity
77%
Altimeter
29.88" Hg
Pressure
1011.92 hPa